sensor_id;sensor_type;location;lat;lon;timestamp;P1;durP1;ratioP1;P2;durP2;ratioP2
48975;SDS011;34791;52.752;8.346;2023-04-15T00:00:56;22.27;;;12.00;;
48975;SDS011;34791;52.752;8.346;2023-04-15T00:03:23;22.77;;;12.13;;
48975;SDS011;34791;52.752;8.346;2023-04-15T00:05:49;20.57;;;11.43;;
48975;SDS011;34791;52.752;8.346;2023-04-15T00:08:14;19.53;;;11.83;;
48975;SDS011;34791;52.752;8.346;2023-04-15T00:10:40;24.43;;;12.30;;
48975;SDS011;34791;52.752;8.346;2023-04-15T00:13:08;24.13;;;12.40;;
48975;SDS011;34791;52.752;8.346;2023-04-15T00:15:34;23.73;;;12.53;;
48975;SDS011;34791;52.752;8.346;2023-04-15T00:17:59;31.77;;;14.83;;
48975;SDS011;34791;52.752;8.346;2023-04-15T00:20:25;28.20;;;14.00;;
48975;SDS011;34791;52.752;8.346;2023-04-15T00:22:50;26.17;;;13.77;;
48975;SDS011;34791;52.752;8.346;2023-04-15T00:25:16;28.00;;;14.00;;
48975;SDS011;34791;52.752;8.346;2023-04-15T00:27:42;30.13;;;14.47;;
48975;SDS011;34791;52.752;8.346;2023-04-15T00:30:07;28.37;;;15.57;;
48975;SDS011;34791;52.752;8.346;2023-04-15T00:32:33;31.47;;;16.03;;
48975;SDS011;34791;52.752;8.346;2023-04-15T00:34:59;30.13;;;14.83;;
48975;SDS011;34791;52.752;8.346;2023-04-15T00:37:24;28.20;;;14.80;;
48975;SDS011;34791;52.752;8.346;2023-04-15T00:39:50;35.37;;;15.30;;
48975;SDS011;34791;52.752;8.346;2023-04-15T00:42:16;54.40;;;23.17;;
48975;SDS011;34791;52.752;8.346;2023-04-15T00:44:43;37.57;;;17.00;;
48975;SDS011;34791;52.752;8.346;2023-04-15T00:47:08;36.13;;;17.33;;
48975;SDS011;34791;52.752;8.346;2023-04-15T00:49:35;31.20;;;16.87;;
48975;SDS011;34791;52.752;8.346;2023-04-15T00:52:00;31.73;;;16.80;;
48975;SDS011;34791;52.752;8.346;2023-04-15T00:54:27;35.23;;;17.53;;
48975;SDS011;34791;52.752;8.346;2023-04-15T00:56:53;29.33;;;14.27;;
48975;SDS011;34791;52.752;8.346;2023-04-15T00:59:18;32.30;;;15.00;;
48975;SDS011;34791;52.752;8.346;2023-04-15T01:04:29;46.43;;;22.43;;
48975;SDS011;34791;52.752;8.346;2023-04-15T01:06:55;49.73;;;21.73;;
48975;SDS011;34791;52.752;8.346;2023-04-15T01:09:21;27.83;;;14.07;;
48975;SDS011;34791;52.752;8.346;2023-04-15T01:11:47;28.87;;;13.33;;
48975;SDS011;34791;52.752;8.346;2023-04-15T01:14:12;24.03;;;13.20;;
48975;SDS011;34791;52.752;8.346;2023-04-15T01:16:38;27.63;;;13.60;;
48975;SDS011;34791;52.752;8.346;2023-04-15T01:19:07;53.03;;;21.53;;
48975;SDS011;34791;52.752;8.346;2023-04-15T01:21:35;36.63;;;17.02;;
48975;SDS011;34791;52.752;8.346;2023-04-15T01:24:03;29.23;;;14.23;;
48975;SDS011;34791;52.752;8.346;2023-04-15T01:26:35;28.03;;;13.67;;
48975;SDS011;34791;52.752;8.346;2023-04-15T01:29:02;35.60;;;17.30;;
48975;SDS011;34791;52.752;8.346;2023-04-15T01:31:28;31.67;;;16.83;;
48975;SDS011;34791;52.752;8.346;2023-04-15T01:33:53;35.20;;;16.93;;
48975;SDS011;34791;52.752;8.346;2023-04-15T01:36:19;35.47;;;17.27;;
48975;SDS011;34791;52.752;8.346;2023-04-15T01:38:44;37.47;;;17.27;;
48975;SDS011;34791;52.752;8.346;2023-04-15T01:41:10;42.77;;;19.27;;
48975;SDS011;34791;52.752;8.346;2023-04-15T01:43:35;42.17;;;19.37;;
48975;SDS011;34791;52.752;8.346;2023-04-15T01:46:04;44.03;;;20.63;;
48975;SDS011;34791;52.752;8.346;2023-04-15T01:48:30;45.67;;;21.07;;
48975;SDS011;34791;52.752;8.346;2023-04-15T01:50:56;51.03;;;22.10;;
48975;SDS011;34791;52.752;8.346;2023-04-15T01:53:23;44.97;;;20.73;;
48975;SDS011;34791;52.752;8.346;2023-04-15T01:55:49;51.43;;;22.93;;
48975;SDS011;34791;52.752;8.346;2023-04-15T01:58:16;53.00;;;25.03;;
48975;SDS011;34791;52.752;8.346;2023-04-15T02:00:42;50.77;;;23.97;;
48975;SDS011;34791;52.752;8.346;2023-04-15T02:03:07;52.63;;;23.87;;
48975;SDS011;34791;52.752;8.346;2023-04-15T02:05:33;51.77;;;23.43;;
48975;SDS011;34791;52.752;8.346;2023-04-15T02:07:59;49.10;;;23.53;;
48975;SDS011;34791;52.752;8.346;2023-04-15T02:10:25;46.47;;;20.77;;
48975;SDS011;34791;52.752;8.346;2023-04-15T02:12:51;39.50;;;18.33;;
48975;SDS011;34791;52.752;8.346;2023-04-15T02:15:16;40.27;;;20.17;;
48975;SDS011;34791;52.752;8.346;2023-04-15T02:17:42;41.80;;;19.90;;
48975;SDS011;34791;52.752;8.346;2023-04-15T02:20:10;45.90;;;21.73;;
48975;SDS011;34791;52.752;8.346;2023-04-15T02:22:36;44.20;;;21.73;;
48975;SDS011;34791;52.752;8.346;2023-04-15T02:25:01;62.23;;;25.43;;
48975;SDS011;34791;52.752;8.346;2023-04-15T02:27:27;46.10;;;22.90;;
48975;SDS011;34791;52.752;8.346;2023-04-15T02:29:53;48.10;;;22.67;;
48975;SDS011;34791;52.752;8.346;2023-04-15T02:32:18;46.10;;;23.30;;
48975;SDS011;34791;52.752;8.346;2023-04-15T02:34:45;56.73;;;27.43;;
48975;SDS011;34791;52.752;8.346;2023-04-15T02:37:11;50.20;;;25.33;;
48975;SDS011;34791;52.752;8.346;2023-04-15T02:39:37;54.33;;;25.83;;
48975;SDS011;34791;52.752;8.346;2023-04-15T02:42:03;57.60;;;27.47;;
48975;SDS011;34791;52.752;8.346;2023-04-15T02:44:30;64.90;;;28.90;;
48975;SDS011;34791;52.752;8.346;2023-04-15T02:46:56;67.07;;;30.13;;
48975;SDS011;34791;52.752;8.346;2023-04-15T02:49:23;66.27;;;27.90;;
48975;SDS011;34791;52.752;8.346;2023-04-15T02:51:48;65.47;;;27.63;;
48975;SDS011;34791;52.752;8.346;2023-04-15T02:54:18;62.93;;;28.30;;
48975;SDS011;34791;52.752;8.346;2023-04-15T02:56:45;71.23;;;28.83;;
48975;SDS011;34791;52.752;8.346;2023-04-15T02:59:13;65.87;;;29.43;;
48975;SDS011;34791;52.752;8.346;2023-04-15T03:01:39;66.63;;;28.67;;
48975;SDS011;34791;52.752;8.346;2023-04-15T03:04:04;68.57;;;29.20;;
48975;SDS011;34791;52.752;8.346;2023-04-15T03:06:31;70.80;;;31.73;;
48975;SDS011;34791;52.752;8.346;2023-04-15T03:08:57;67.00;;;29.43;;
48975;SDS011;34791;52.752;8.346;2023-04-15T03:11:24;66.67;;;29.70;;
48975;SDS011;34791;52.752;8.346;2023-04-15T03:13:51;60.67;;;29.23;;
48975;SDS011;34791;52.752;8.346;2023-04-15T03:16:16;63.30;;;29.53;;
48975;SDS011;34791;52.752;8.346;2023-04-15T03:18:41;65.63;;;29.07;;
48975;SDS011;34791;52.752;8.346;2023-04-15T03:21:07;65.17;;;27.83;;
48975;SDS011;34791;52.752;8.346;2023-04-15T03:23:32;60.27;;;26.70;;
48975;SDS011;34791;52.752;8.346;2023-04-15T03:26:00;65.00;;;26.77;;
48975;SDS011;34791;52.752;8.346;2023-04-15T03:28:26;64.73;;;27.53;;
48975;SDS011;34791;52.752;8.346;2023-04-15T03:30:53;63.00;;;26.63;;
48975;SDS011;34791;52.752;8.346;2023-04-15T03:33:19;55.93;;;25.43;;
48975;SDS011;34791;52.752;8.346;2023-04-15T03:35:44;54.10;;;24.43;;
48975;SDS011;34791;52.752;8.346;2023-04-15T03:38:10;56.13;;;25.73;;
48975;SDS011;34791;52.752;8.346;2023-04-15T03:40:36;56.03;;;25.57;;
48975;SDS011;34791;52.752;8.346;2023-04-15T03:43:02;57.97;;;24.63;;
48975;SDS011;34791;52.752;8.346;2023-04-15T03:45:28;62.03;;;27.20;;
48975;SDS011;34791;52.752;8.346;2023-04-15T03:47:54;59.17;;;26.47;;
48975;SDS011;34791;52.752;8.346;2023-04-15T03:50:20;66.67;;;28.57;;
48975;SDS011;34791;52.752;8.346;2023-04-15T03:52:45;66.80;;;28.47;;
48975;SDS011;34791;52.752;8.346;2023-04-15T03:55:11;65.13;;;27.50;;
48975;SDS011;34791;52.752;8.346;2023-04-15T03:57:36;63.00;;;27.20;;
48975;SDS011;34791;52.752;8.346;2023-04-15T04:00:03;65.30;;;29.00;;
48975;SDS011;34791;52.752;8.346;2023-04-15T04:02:30;71.03;;;29.77;;
48975;SDS011;34791;52.752;8.346;2023-04-15T04:04:55;71.80;;;29.67;;
48975;SDS011;34791;52.752;8.346;2023-04-15T04:07:22;71.57;;;28.33;;
48975;SDS011;34791;52.752;8.346;2023-04-15T04:09:48;74.53;;;30.00;;
48975;SDS011;34791;52.752;8.346;2023-04-15T04:12:13;74.03;;;29.33;;
48975;SDS011;34791;52.752;8.346;2023-04-15T04:14:39;68.80;;;28.63;;
48975;SDS011;34791;52.752;8.346;2023-04-15T04:17:04;72.90;;;29.13;;
48975;SDS011;34791;52.752;8.346;2023-04-15T04:19:30;78.13;;;29.70;;
48975;SDS011;34791;52.752;8.346;2023-04-15T04:21:56;74.23;;;30.20;;
48975;SDS011;34791;52.752;8.346;2023-04-15T04:24:21;70.20;;;28.50;;
48975;SDS011;34791;52.752;8.346;2023-04-15T04:26:47;77.67;;;30.07;;
48975;SDS011;34791;52.752;8.346;2023-04-15T04:29:12;82.53;;;31.13;;
48975;SDS011;34791;52.752;8.346;2023-04-15T04:31:38;72.33;;;29.67;;
48975;SDS011;34791;52.752;8.346;2023-04-15T04:34:03;78.40;;;31.03;;
48975;SDS011;34791;52.752;8.346;2023-04-15T04:36:29;72.20;;;30.17;;
48975;SDS011;34791;52.752;8.346;2023-04-15T04:38:54;70.03;;;28.03;;
48975;SDS011;34791;52.752;8.346;2023-04-15T04:41:20;63.27;;;27.40;;
48975;SDS011;34791;52.752;8.346;2023-04-15T04:43:45;60.10;;;26.57;;
48975;SDS011;34791;52.752;8.346;2023-04-15T04:46:11;58.03;;;25.47;;
48975;SDS011;34791;52.752;8.346;2023-04-15T04:48:37;55.87;;;25.37;;
48975;SDS011;34791;52.752;8.346;2023-04-15T04:51:03;53.43;;;25.13;;
48975;SDS011;34791;52.752;8.346;2023-04-15T04:53:29;49.03;;;23.53;;
48975;SDS011;34791;52.752;8.346;2023-04-15T04:55:55;49.17;;;24.63;;
48975;SDS011;34791;52.752;8.346;2023-04-15T04:58:20;58.60;;;24.80;;
48975;SDS011;34791;52.752;8.346;2023-04-15T05:00:45;51.23;;;23.60;;
48975;SDS011;34791;52.752;8.346;2023-04-15T05:03:11;44.90;;;23.37;;
48975;SDS011;34791;52.752;8.346;2023-04-15T05:05:37;45.37;;;22.37;;
48975;SDS011;34791;52.752;8.346;2023-04-15T05:08:05;48.17;;;23.13;;
48975;SDS011;34791;52.752;8.346;2023-04-15T05:10:31;44.27;;;21.90;;
48975;SDS011;34791;52.752;8.346;2023-04-15T05:12:56;43.80;;;21.40;;
48975;SDS011;34791;52.752;8.346;2023-04-15T05:15:22;37.77;;;19.63;;
48975;SDS011;34791;52.752;8.346;2023-04-15T05:17:47;41.17;;;21.17;;
48975;SDS011;34791;52.752;8.346;2023-04-15T05:20:13;38.13;;;20.60;;
48975;SDS011;34791;52.752;8.346;2023-04-15T05:22:39;41.83;;;20.23;;
48975;SDS011;34791;52.752;8.346;2023-04-15T05:25:05;39.30;;;20.07;;
48975;SDS011;34791;52.752;8.346;2023-04-15T05:27:31;38.80;;;20.57;;
48975;SDS011;34791;52.752;8.346;2023-04-15T05:29:56;36.87;;;19.17;;
48975;SDS011;34791;52.752;8.346;2023-04-15T05:32:22;32.93;;;18.57;;
48975;SDS011;34791;52.752;8.346;2023-04-15T05:34:47;35.80;;;18.40;;
48975;SDS011;34791;52.752;8.346;2023-04-15T05:37:13;35.40;;;18.37;;
48975;SDS011;34791;52.752;8.346;2023-04-15T05:39:38;31.83;;;17.90;;
48975;SDS011;34791;52.752;8.346;2023-04-15T05:42:04;32.60;;;17.67;;
48975;SDS011;34791;52.752;8.346;2023-04-15T05:44:30;31.50;;;17.43;;
48975;SDS011;34791;52.752;8.346;2023-04-15T05:46:56;31.93;;;17.10;;
48975;SDS011;34791;52.752;8.346;2023-04-15T05:49:21;33.47;;;16.50;;
48975;SDS011;34791;52.752;8.346;2023-04-15T05:51:47;32.77;;;16.43;;
48975;SDS011;34791;52.752;8.346;2023-04-15T05:54:13;30.30;;;15.50;;
48975;SDS011;34791;52.752;8.346;2023-04-15T05:56:38;29.07;;;15.63;;
48975;SDS011;34791;52.752;8.346;2023-04-15T05:59:03;31.70;;;16.27;;
48975;SDS011;34791;52.752;8.346;2023-04-15T06:01:29;28.47;;;15.33;;
48975;SDS011;34791;52.752;8.346;2023-04-15T06:03:55;30.10;;;15.47;;
48975;SDS011;34791;52.752;8.346;2023-04-15T06:06:20;27.90;;;15.47;;
48975;SDS011;34791;52.752;8.346;2023-04-15T06:08:46;29.93;;;15.03;;
48975;SDS011;34791;52.752;8.346;2023-04-15T06:11:11;29.07;;;15.87;;
48975;SDS011;34791;52.752;8.346;2023-04-15T06:13:37;29.03;;;15.63;;
48975;SDS011;34791;52.752;8.346;2023-04-15T06:16:02;25.47;;;13.43;;
48975;SDS011;34791;52.752;8.346;2023-04-15T06:18:28;26.83;;;14.67;;
48975;SDS011;34791;52.752;8.346;2023-04-15T06:20:54;28.47;;;14.83;;
48975;SDS011;34791;52.752;8.346;2023-04-15T06:23:19;26.30;;;14.37;;
48975;SDS011;34791;52.752;8.346;2023-04-15T06:25:45;29.07;;;15.33;;
48975;SDS011;34791;52.752;8.346;2023-04-15T06:28:11;27.93;;;15.17;;
48975;SDS011;34791;52.752;8.346;2023-04-15T06:30:36;30.60;;;16.00;;
48975;SDS011;34791;52.752;8.346;2023-04-15T06:33:02;31.70;;;16.17;;
48975;SDS011;34791;52.752;8.346;2023-04-15T06:35:29;32.80;;;15.53;;
48975;SDS011;34791;52.752;8.346;2023-04-15T06:37:55;32.40;;;17.17;;
48975;SDS011;34791;52.752;8.346;2023-04-15T06:40:20;34.77;;;17.13;;
48975;SDS011;34791;52.752;8.346;2023-04-15T06:42:46;36.23;;;17.70;;
48975;SDS011;34791;52.752;8.346;2023-04-15T06:45:11;33.33;;;16.37;;
48975;SDS011;34791;52.752;8.346;2023-04-15T06:47:37;34.53;;;17.30;;
48975;SDS011;34791;52.752;8.346;2023-04-15T06:50:03;35.77;;;16.63;;
48975;SDS011;34791;52.752;8.346;2023-04-15T06:52:28;35.23;;;17.83;;
48975;SDS011;34791;52.752;8.346;2023-04-15T06:54:54;38.03;;;17.87;;
48975;SDS011;34791;52.752;8.346;2023-04-15T06:57:20;35.33;;;16.93;;
48975;SDS011;34791;52.752;8.346;2023-04-15T06:59:45;39.50;;;18.13;;
48975;SDS011;34791;52.752;8.346;2023-04-15T07:02:11;35.73;;;16.57;;
48975;SDS011;34791;52.752;8.346;2023-04-15T07:04:38;35.80;;;17.90;;
48975;SDS011;34791;52.752;8.346;2023-04-15T07:07:04;37.67;;;18.43;;
48975;SDS011;34791;52.752;8.346;2023-04-15T07:09:30;40.23;;;19.63;;
48975;SDS011;34791;52.752;8.346;2023-04-15T07:11:56;42.47;;;20.43;;
48975;SDS011;34791;52.752;8.346;2023-04-15T07:14:22;43.13;;;21.03;;
48975;SDS011;34791;52.752;8.346;2023-04-15T07:16:47;49.57;;;21.43;;
48975;SDS011;34791;52.752;8.346;2023-04-15T07:19:13;50.67;;;23.10;;
48975;SDS011;34791;52.752;8.346;2023-04-15T07:21:38;48.17;;;22.47;;
48975;SDS011;34791;52.752;8.346;2023-04-15T07:24:04;49.97;;;22.33;;
48975;SDS011;34791;52.752;8.346;2023-04-15T07:26:29;47.93;;;22.27;;
48975;SDS011;34791;52.752;8.346;2023-04-15T07:28:55;44.93;;;21.67;;
48975;SDS011;34791;52.752;8.346;2023-04-15T07:31:20;46.60;;;21.73;;
48975;SDS011;34791;52.752;8.346;2023-04-15T07:33:46;45.63;;;21.67;;
48975;SDS011;34791;52.752;8.346;2023-04-15T07:36:11;41.57;;;20.83;;
48975;SDS011;34791;52.752;8.346;2023-04-15T07:38:37;40.27;;;19.90;;
48975;SDS011;34791;52.752;8.346;2023-04-15T07:41:03;45.13;;;20.07;;
48975;SDS011;34791;52.752;8.346;2023-04-15T07:43:28;42.27;;;20.67;;
48975;SDS011;34791;52.752;8.346;2023-04-15T07:45:54;35.93;;;19.63;;
48975;SDS011;34791;52.752;8.346;2023-04-15T07:48:19;40.70;;;19.90;;
48975;SDS011;34791;52.752;8.346;2023-04-15T07:50:45;37.50;;;19.83;;
48975;SDS011;34791;52.752;8.346;2023-04-15T07:53:10;37.87;;;18.40;;
48975;SDS011;34791;52.752;8.346;2023-04-15T07:55:36;39.57;;;19.57;;
48975;SDS011;34791;52.752;8.346;2023-04-15T07:58:01;41.57;;;20.57;;
48975;SDS011;34791;52.752;8.346;2023-04-15T08:00:27;37.80;;;18.10;;
48975;SDS011;34791;52.752;8.346;2023-04-15T08:02:53;40.30;;;18.17;;
48975;SDS011;34791;52.752;8.346;2023-04-15T08:05:21;36.70;;;18.07;;
48975;SDS011;34791;52.752;8.346;2023-04-15T08:07:46;36.20;;;18.97;;
48975;SDS011;34791;52.752;8.346;2023-04-15T08:10:12;34.47;;;17.03;;
48975;SDS011;34791;52.752;8.346;2023-04-15T08:12:38;40.30;;;19.70;;
48975;SDS011;34791;52.752;8.346;2023-04-15T08:15:04;41.03;;;19.87;;
48975;SDS011;34791;52.752;8.346;2023-04-15T08:17:32;42.33;;;19.83;;
48975;SDS011;34791;52.752;8.346;2023-04-15T08:19:57;40.27;;;19.77;;
48975;SDS011;34791;52.752;8.346;2023-04-15T08:22:23;44.90;;;22.30;;
48975;SDS011;34791;52.752;8.346;2023-04-15T08:24:48;42.70;;;20.17;;
48975;SDS011;34791;52.752;8.346;2023-04-15T08:27:14;42.07;;;19.63;;
48975;SDS011;34791;52.752;8.346;2023-04-15T08:29:39;40.20;;;20.20;;
48975;SDS011;34791;52.752;8.346;2023-04-15T08:32:04;36.67;;;18.67;;
48975;SDS011;34791;52.752;8.346;2023-04-15T08:34:30;35.27;;;18.27;;
48975;SDS011;34791;52.752;8.346;2023-04-15T08:36:56;32.40;;;17.70;;
48975;SDS011;34791;52.752;8.346;2023-04-15T08:39:21;29.43;;;16.03;;
48975;SDS011;34791;52.752;8.346;2023-04-15T08:41:50;27.40;;;14.83;;
48975;SDS011;34791;52.752;8.346;2023-04-15T08:44:20;30.90;;;16.30;;
48975;SDS011;34791;52.752;8.346;2023-04-15T08:46:48;28.70;;;13.60;;
48975;SDS011;34791;52.752;8.346;2023-04-15T08:49:15;25.00;;;12.00;;
48975;SDS011;34791;52.752;8.346;2023-04-15T08:51:43;22.17;;;11.43;;
48975;SDS011;34791;52.752;8.346;2023-04-15T08:54:09;22.10;;;11.40;;
48975;SDS011;34791;52.752;8.346;2023-04-15T08:56:35;20.93;;;10.37;;
48975;SDS011;34791;52.752;8.346;2023-04-15T08:59:01;18.97;;;9.93;;
48975;SDS011;34791;52.752;8.346;2023-04-15T09:01:27;15.83;;;8.83;;
48975;SDS011;34791;52.752;8.346;2023-04-15T09:03:53;17.03;;;8.67;;
48975;SDS011;34791;52.752;8.346;2023-04-15T09:06:20;15.20;;;8.17;;
48975;SDS011;34791;52.752;8.346;2023-04-15T09:08:47;18.40;;;9.07;;
48975;SDS011;34791;52.752;8.346;2023-04-15T09:11:13;15.30;;;8.53;;
48975;SDS011;34791;52.752;8.346;2023-04-15T09:13:38;14.13;;;8.00;;
48975;SDS011;34791;52.752;8.346;2023-04-15T09:16:04;11.60;;;6.47;;
48975;SDS011;34791;52.752;8.346;2023-04-15T09:18:34;14.97;;;7.80;;
48975;SDS011;34791;52.752;8.346;2023-04-15T09:21:33;14.03;;;7.30;;
48975;SDS011;34791;52.752;8.346;2023-04-15T09:23:54;11.00;;;6.60;;
48975;SDS011;34791;52.752;8.346;2023-04-15T09:26:34;13.23;;;6.43;;
48975;SDS011;34791;52.752;8.346;2023-04-15T09:29:08;11.00;;;6.30;;
48975;SDS011;34791;52.752;8.346;2023-04-15T09:31:35;13.73;;;6.60;;
48975;SDS011;34791;52.752;8.346;2023-04-15T09:34:01;12.37;;;6.50;;
48975;SDS011;34791;52.752;8.346;2023-04-15T09:36:27;12.70;;;6.70;;
48975;SDS011;34791;52.752;8.346;2023-04-15T09:38:58;10.80;;;6.37;;
48975;SDS011;34791;52.752;8.346;2023-04-15T09:41:25;9.83;;;5.80;;
48975;SDS011;34791;52.752;8.346;2023-04-15T09:43:51;11.20;;;5.70;;
48975;SDS011;34791;52.752;8.346;2023-04-15T09:46:17;10.47;;;5.47;;
48975;SDS011;34791;52.752;8.346;2023-04-15T09:48:43;10.80;;;5.80;;
48975;SDS011;34791;52.752;8.346;2023-04-15T09:51:08;11.50;;;5.77;;
48975;SDS011;34791;52.752;8.346;2023-04-15T09:53:35;11.47;;;5.70;;
48975;SDS011;34791;52.752;8.346;2023-04-15T09:56:02;10.73;;;5.63;;
48975;SDS011;34791;52.752;8.346;2023-04-15T09:58:29;12.03;;;5.67;;
48975;SDS011;34791;52.752;8.346;2023-04-15T10:00:56;9.87;;;4.90;;
48975;SDS011;34791;52.752;8.346;2023-04-15T10:03:24;8.40;;;5.43;;
48975;SDS011;34791;52.752;8.346;2023-04-15T10:05:57;8.10;;;4.97;;
48975;SDS011;34791;52.752;8.346;2023-04-15T10:08:28;8.40;;;5.00;;
48975;SDS011;34791;52.752;8.346;2023-04-15T10:10:55;9.98;;;5.63;;
48975;SDS011;34791;52.752;8.346;2023-04-15T10:13:25;11.97;;;5.70;;
48975;SDS011;34791;52.752;8.346;2023-04-15T10:16:03;9.47;;;4.83;;
48975;SDS011;34791;52.752;8.346;2023-04-15T10:18:31;11.67;;;5.50;;
48975;SDS011;34791;52.752;8.346;2023-04-15T10:20:59;12.17;;;5.50;;
48975;SDS011;34791;52.752;8.346;2023-04-15T10:23:25;9.10;;;5.60;;
48975;SDS011;34791;52.752;8.346;2023-04-15T10:25:52;8.33;;;5.40;;
48975;SDS011;34791;52.752;8.346;2023-04-15T10:28:18;9.67;;;5.87;;
48975;SDS011;34791;52.752;8.346;2023-04-15T10:30:45;9.27;;;6.00;;
48975;SDS011;34791;52.752;8.346;2023-04-15T10:33:11;11.13;;;5.90;;
48975;SDS011;34791;52.752;8.346;2023-04-15T10:35:38;10.13;;;5.90;;
48975;SDS011;34791;52.752;8.346;2023-04-15T10:41:12;12.10;;;6.90;;
48975;SDS011;34791;52.752;8.346;2023-04-15T10:44:03;10.93;;;6.70;;
48975;SDS011;34791;52.752;8.346;2023-04-15T10:46:39;8.27;;;5.03;;
48975;SDS011;34791;52.752;8.346;2023-04-15T10:49:10;11.03;;;6.80;;
48975;SDS011;34791;52.752;8.346;2023-04-15T10:51:38;11.00;;;7.20;;
48975;SDS011;34791;52.752;8.346;2023-04-15T10:54:30;12.40;;;6.37;;
48975;SDS011;34791;52.752;8.346;2023-04-15T10:57:16;11.33;;;6.90;;
48975;SDS011;34791;52.752;8.346;2023-04-15T11:00:01;10.07;;;6.27;;
48975;SDS011;34791;52.752;8.346;2023-04-15T11:02:54;10.50;;;6.33;;
48975;SDS011;34791;52.752;8.346;2023-04-15T11:05:47;10.10;;;6.07;;
48975;SDS011;34791;52.752;8.346;2023-04-15T11:08:14;10.30;;;6.40;;
48975;SDS011;34791;52.752;8.346;2023-04-15T11:10:49;10.60;;;6.20;;
48975;SDS011;34791;52.752;8.346;2023-04-15T11:13:16;10.97;;;6.77;;
48975;SDS011;34791;52.752;8.346;2023-04-15T11:15:46;10.43;;;6.40;;
48975;SDS011;34791;52.752;8.346;2023-04-15T11:18:22;9.00;;;5.83;;
48975;SDS011;34791;52.752;8.346;2023-04-15T11:20:51;9.03;;;6.30;;
48975;SDS011;34791;52.752;8.346;2023-04-15T11:23:31;7.82;;;5.55;;
48975;SDS011;34791;52.752;8.346;2023-04-15T11:26:00;9.93;;;5.80;;
48975;SDS011;34791;52.752;8.346;2023-04-15T11:28:28;10.47;;;5.50;;
48975;SDS011;34791;52.752;8.346;2023-04-15T11:30:55;8.57;;;5.17;;
48975;SDS011;34791;52.752;8.346;2023-04-15T11:33:21;11.13;;;5.60;;
48975;SDS011;34791;52.752;8.346;2023-04-15T11:35:48;10.33;;;6.00;;
48975;SDS011;34791;52.752;8.346;2023-04-15T11:38:16;10.90;;;6.60;;
48975;SDS011;34791;52.752;8.346;2023-04-15T11:40:42;10.03;;;6.40;;
48975;SDS011;34791;52.752;8.346;2023-04-15T11:43:12;13.47;;;7.13;;
48975;SDS011;34791;52.752;8.346;2023-04-15T11:45:58;13.20;;;7.05;;
48975;SDS011;34791;52.752;8.346;2023-04-15T11:48:30;11.37;;;6.90;;
48975;SDS011;34791;52.752;8.346;2023-04-15T11:50:58;16.10;;;7.47;;
48975;SDS011;34791;52.752;8.346;2023-04-15T11:53:35;14.17;;;7.90;;
48975;SDS011;34791;52.752;8.346;2023-04-15T11:56:15;15.07;;;7.70;;
48975;SDS011;34791;52.752;8.346;2023-04-15T12:01:08;13.97;;;8.37;;
48975;SDS011;34791;52.752;8.346;2023-04-15T12:03:41;14.07;;;8.60;;
48975;SDS011;34791;52.752;8.346;2023-04-15T12:06:12;13.33;;;9.50;;
48975;SDS011;34791;52.752;8.346;2023-04-15T12:09:02;17.90;;;9.80;;
48975;SDS011;34791;52.752;8.346;2023-04-15T12:11:35;13.53;;;8.40;;
48975;SDS011;34791;52.752;8.346;2023-04-15T12:14:12;13.40;;;8.43;;
48975;SDS011;34791;52.752;8.346;2023-04-15T12:16:45;16.23;;;9.00;;
48975;SDS011;34791;52.752;8.346;2023-04-15T12:19:14;16.57;;;9.90;;
48975;SDS011;34791;52.752;8.346;2023-04-15T12:21:43;13.20;;;8.97;;
48975;SDS011;34791;52.752;8.346;2023-04-15T12:24:10;14.37;;;8.57;;
48975;SDS011;34791;52.752;8.346;2023-04-15T12:26:43;10.37;;;7.80;;
48975;SDS011;34791;52.752;8.346;2023-04-15T12:29:19;13.43;;;7.80;;
48975;SDS011;34791;52.752;8.346;2023-04-15T12:31:53;12.20;;;8.30;;
48975;SDS011;34791;52.752;8.346;2023-04-15T12:34:33;13.90;;;7.18;;
48975;SDS011;34791;52.752;8.346;2023-04-15T12:37:04;15.20;;;8.00;;
48975;SDS011;34791;52.752;8.346;2023-04-15T12:39:34;14.00;;;7.30;;
48975;SDS011;34791;52.752;8.346;2023-04-15T12:42:00;11.93;;;7.60;;
48975;SDS011;34791;52.752;8.346;2023-04-15T12:44:28;13.63;;;7.33;;
48975;SDS011;34791;52.752;8.346;2023-04-15T12:46:53;12.83;;;7.27;;
48975;SDS011;34791;52.752;8.346;2023-04-15T12:49:20;12.77;;;7.30;;
48975;SDS011;34791;52.752;8.346;2023-04-15T12:51:50;12.97;;;7.47;;
48975;SDS011;34791;52.752;8.346;2023-04-15T12:56:45;12.23;;;8.00;;
48975;SDS011;34791;52.752;8.346;2023-04-15T12:59:11;13.13;;;8.13;;
48975;SDS011;34791;52.752;8.346;2023-04-15T13:01:37;14.23;;;8.30;;
48975;SDS011;34791;52.752;8.346;2023-04-15T13:04:03;14.53;;;8.60;;
48975;SDS011;34791;52.752;8.346;2023-04-15T13:06:29;15.60;;;8.73;;
48975;SDS011;34791;52.752;8.346;2023-04-15T13:08:57;16.50;;;8.60;;
48975;SDS011;34791;52.752;8.346;2023-04-15T13:11:23;13.50;;;8.70;;
48975;SDS011;34791;52.752;8.346;2023-04-15T13:13:49;17.00;;;9.80;;
48975;SDS011;34791;52.752;8.346;2023-04-15T13:16:16;15.17;;;9.77;;
48975;SDS011;34791;52.752;8.346;2023-04-15T13:18:41;15.93;;;10.43;;
48975;SDS011;34791;52.752;8.346;2023-04-15T13:21:07;19.27;;;11.80;;
48975;SDS011;34791;52.752;8.346;2023-04-15T13:23:34;21.47;;;11.87;;
48975;SDS011;34791;52.752;8.346;2023-04-15T13:26:00;19.33;;;11.80;;
48975;SDS011;34791;52.752;8.346;2023-04-15T13:28:25;22.87;;;12.20;;
48975;SDS011;34791;52.752;8.346;2023-04-15T13:30:51;22.50;;;12.73;;
48975;SDS011;34791;52.752;8.346;2023-04-15T13:33:16;23.83;;;14.47;;
48975;SDS011;34791;52.752;8.346;2023-04-15T13:35:42;29.60;;;15.23;;
48975;SDS011;34791;52.752;8.346;2023-04-15T13:38:08;32.67;;;15.97;;
48975;SDS011;34791;52.752;8.346;2023-04-15T13:40:33;33.50;;;17.07;;
48975;SDS011;34791;52.752;8.346;2023-04-15T13:42:59;37.70;;;18.07;;
48975;SDS011;34791;52.752;8.346;2023-04-15T13:45:26;32.47;;;17.80;;
48975;SDS011;34791;52.752;8.346;2023-04-15T13:47:51;42.10;;;18.50;;
48975;SDS011;34791;52.752;8.346;2023-04-15T13:50:17;36.53;;;17.90;;
48975;SDS011;34791;52.752;8.346;2023-04-15T13:52:43;33.30;;;18.10;;
48975;SDS011;34791;52.752;8.346;2023-04-15T13:55:08;38.87;;;21.03;;
48975;SDS011;34791;52.752;8.346;2023-04-15T13:57:34;36.30;;;18.73;;
48975;SDS011;34791;52.752;8.346;2023-04-15T14:00:01;39.73;;;19.17;;
48975;SDS011;34791;52.752;8.346;2023-04-15T14:02:28;38.03;;;18.07;;
48975;SDS011;34791;52.752;8.346;2023-04-15T14:04:54;36.20;;;16.37;;
48975;SDS011;34791;52.752;8.346;2023-04-15T14:07:19;39.33;;;17.47;;
48975;SDS011;34791;52.752;8.346;2023-04-15T14:09:45;31.80;;;14.47;;
48975;SDS011;34791;52.752;8.346;2023-04-15T14:12:12;38.37;;;17.03;;
48975;SDS011;34791;52.752;8.346;2023-04-15T14:14:37;37.97;;;16.73;;
48975;SDS011;34791;52.752;8.346;2023-04-15T14:17:03;33.73;;;15.07;;
48975;SDS011;34791;52.752;8.346;2023-04-15T14:19:29;45.43;;;18.07;;
48975;SDS011;34791;52.752;8.346;2023-04-15T14:21:55;44.47;;;18.53;;
48975;SDS011;34791;52.752;8.346;2023-04-15T14:24:21;40.70;;;17.27;;
48975;SDS011;34791;52.752;8.346;2023-04-15T14:26:46;48.53;;;19.13;;
48975;SDS011;34791;52.752;8.346;2023-04-15T14:29:12;47.13;;;19.07;;
48975;SDS011;34791;52.752;8.346;2023-04-15T14:31:37;46.03;;;19.73;;
48975;SDS011;34791;52.752;8.346;2023-04-15T14:34:03;48.63;;;20.47;;
48975;SDS011;34791;52.752;8.346;2023-04-15T14:36:30;51.57;;;20.57;;